sensor_id;sensor_type;location;lat;lon;timestamp;P1;durP1;ratioP1;P2;durP2;ratioP2
11685;SDS011;5899;51.282;6.094;2023-09-19T00:01:25;8.18;;;2.72;;
11685;SDS011;5899;51.282;6.094;2023-09-19T00:04:07;2.90;;;1.53;;
11685;SDS011;5899;51.282;6.094;2023-09-19T00:07:11;4.22;;;1.60;;
11685;SDS011;5899;51.282;6.094;2023-09-19T00:10:04;3.10;;;1.33;;
11685;SDS011;5899;51.282;6.094;2023-09-19T00:13:46;2.28;;;1.63;;
11685;SDS011;5899;51.282;6.094;2023-09-19T00:27:30;5.45;;;1.88;;
11685;SDS011;5899;51.282;6.094;2023-09-19T00:30:34;4.40;;;1.50;;
11685;SDS011;5899;51.282;6.094;2023-09-19T00:33:15;5.30;;;1.65;;
11685;SDS011;5899;51.282;6.094;2023-09-19T00:35:56;3.08;;;1.38;;
11685;SDS011;5899;51.282;6.094;2023-09-19T00:38:28;2.75;;;1.38;;
11685;SDS011;5899;51.282;6.094;2023-09-19T00:40:59;2.85;;;1.45;;
11685;SDS011;5899;51.282;6.094;2023-09-19T00:46:23;2.97;;;1.40;;
11685;SDS011;5899;51.282;6.094;2023-09-19T00:49:12;5.95;;;1.88;;
11685;SDS011;5899;51.282;6.094;2023-09-19T00:51:49;4.90;;;1.60;;
11685;SDS011;5899;51.282;6.094;2023-09-19T00:54:19;5.13;;;2.08;;
11685;SDS011;5899;51.282;6.094;2023-09-19T00:56:46;5.25;;;1.85;;
11685;SDS011;5899;51.282;6.094;2023-09-19T00:59:16;4.45;;;1.60;;
11685;SDS011;5899;51.282;6.094;2023-09-19T01:01:47;5.78;;;1.80;;
11685;SDS011;5899;51.282;6.094;2023-09-19T01:04:19;5.05;;;1.50;;
11685;SDS011;5899;51.282;6.094;2023-09-19T01:06:55;3.92;;;1.77;;
11685;SDS011;5899;51.282;6.094;2023-09-19T01:09:33;6.72;;;1.50;;
11685;SDS011;5899;51.282;6.094;2023-09-19T01:12:15;4.05;;;1.83;;
11685;SDS011;5899;51.282;6.094;2023-09-19T01:14:54;6.80;;;1.70;;
11685;SDS011;5899;51.282;6.094;2023-09-19T01:20:24;5.97;;;1.70;;
11685;SDS011;5899;51.282;6.094;2023-09-19T01:23:01;2.55;;;1.55;;
11685;SDS011;5899;51.282;6.094;2023-09-19T01:28:35;4.35;;;1.85;;
11685;SDS011;5899;51.282;6.094;2023-09-19T01:34:03;2.85;;;1.50;;
11685;SDS011;5899;51.282;6.094;2023-09-19T01:36:38;5.30;;;1.67;;
11685;SDS011;5899;51.282;6.094;2023-09-19T01:39:15;5.18;;;1.65;;
11685;SDS011;5899;51.282;6.094;2023-09-19T01:41:54;7.57;;;1.63;;
11685;SDS011;5899;51.282;6.094;2023-09-19T01:44:40;4.40;;;1.50;;
11685;SDS011;5899;51.282;6.094;2023-09-19T01:47:55;6.20;;;1.63;;
11685;SDS011;5899;51.282;6.094;2023-09-19T01:50:21;4.00;;;1.50;;
11685;SDS011;5899;51.282;6.094;2023-09-19T01:53:19;3.97;;;1.97;;
11685;SDS011;5899;51.282;6.094;2023-09-19T01:56:31;4.00;;;1.70;;
11685;SDS011;5899;51.282;6.094;2023-09-19T02:01:48;4.57;;;1.60;;
11685;SDS011;5899;51.282;6.094;2023-09-19T02:13:11;5.47;;;1.73;;
11685;SDS011;5899;51.282;6.094;2023-09-19T02:15:52;4.10;;;1.98;;
11685;SDS011;5899;51.282;6.094;2023-09-19T02:18:50;4.05;;;1.95;;
11685;SDS011;5899;51.282;6.094;2023-09-19T02:21:48;3.88;;;1.63;;
11685;SDS011;5899;51.282;6.094;2023-09-19T02:24:27;2.40;;;1.40;;
11685;SDS011;5899;51.282;6.094;2023-09-19T02:27:13;2.05;;;1.50;;
11685;SDS011;5899;51.282;6.094;2023-09-19T02:29:59;5.80;;;1.67;;
11685;SDS011;5899;51.282;6.094;2023-09-19T02:33:02;4.25;;;1.60;;
11685;SDS011;5899;51.282;6.094;2023-09-19T02:35:23;5.22;;;1.65;;
11685;SDS011;5899;51.282;6.094;2023-09-19T02:41:03;6.05;;;1.58;;
11685;SDS011;5899;51.282;6.094;2023-09-19T02:43:41;5.13;;;1.98;;
11685;SDS011;5899;51.282;6.094;2023-09-19T02:46:29;3.80;;;1.50;;
11685;SDS011;5899;51.282;6.094;2023-09-19T02:49:20;2.25;;;1.52;;
11685;SDS011;5899;51.282;6.094;2023-09-19T02:52:01;4.82;;;1.40;;
11685;SDS011;5899;51.282;6.094;2023-09-19T02:54:39;2.20;;;1.30;;
11685;SDS011;5899;51.282;6.094;2023-09-19T02:57:31;4.78;;;1.42;;
11685;SDS011;5899;51.282;6.094;2023-09-19T03:00:11;3.03;;;1.50;;
11685;SDS011;5899;51.282;6.094;2023-09-19T03:02:59;5.40;;;1.83;;
11685;SDS011;5899;51.282;6.094;2023-09-19T03:05:40;5.45;;;1.67;;
11685;SDS011;5899;51.282;6.094;2023-09-19T03:08:23;3.42;;;1.67;;
11685;SDS011;5899;51.282;6.094;2023-09-19T03:11:19;5.70;;;1.52;;
11685;SDS011;5899;51.282;6.094;2023-09-19T03:16:47;5.63;;;1.70;;
11685;SDS011;5899;51.282;6.094;2023-09-19T03:22:32;2.80;;;1.83;;
11685;SDS011;5899;51.282;6.094;2023-09-19T03:25:05;4.87;;;2.03;;
11685;SDS011;5899;51.282;6.094;2023-09-19T03:27:42;5.55;;;1.88;;
11685;SDS011;5899;51.282;6.094;2023-09-19T03:30:20;2.67;;;1.55;;
11685;SDS011;5899;51.282;6.094;2023-09-19T03:32:57;3.80;;;1.47;;
11685;SDS011;5899;51.282;6.094;2023-09-19T03:35:42;1.80;;;1.25;;
11685;SDS011;5899;51.282;6.094;2023-09-19T03:38:18;5.72;;;1.73;;
11685;SDS011;5899;51.282;6.094;2023-09-19T03:40:52;2.97;;;1.60;;
11685;SDS011;5899;51.282;6.094;2023-09-19T03:43:29;2.63;;;1.27;;
11685;SDS011;5899;51.282;6.094;2023-09-19T03:46:10;7.33;;;2.13;;
11685;SDS011;5899;51.282;6.094;2023-09-19T03:48:48;4.75;;;1.55;;
11685;SDS011;5899;51.282;6.094;2023-09-19T03:51:16;4.67;;;1.40;;
11685;SDS011;5899;51.282;6.094;2023-09-19T03:53:47;4.10;;;1.50;;
11685;SDS011;5899;51.282;6.094;2023-09-19T03:56:30;5.10;;;1.88;;
11685;SDS011;5899;51.282;6.094;2023-09-19T03:58:58;7.30;;;2.17;;
11685;SDS011;5899;51.282;6.094;2023-09-19T04:01:28;3.13;;;1.77;;
11685;SDS011;5899;51.282;6.094;2023-09-19T04:04:07;3.00;;;1.57;;
11685;SDS011;5899;51.282;6.094;2023-09-19T04:06:38;4.70;;;2.33;;
11685;SDS011;5899;51.282;6.094;2023-09-19T04:09:21;2.53;;;1.33;;
11685;SDS011;5899;51.282;6.094;2023-09-19T04:12:09;3.88;;;1.55;;
11685;SDS011;5899;51.282;6.094;2023-09-19T04:14:46;3.15;;;2.08;;
11685;SDS011;5899;51.282;6.094;2023-09-19T04:17:21;5.07;;;1.98;;
11685;SDS011;5899;51.282;6.094;2023-09-19T04:22:57;2.80;;;1.40;;
11685;SDS011;5899;51.282;6.094;2023-09-19T04:25:32;4.63;;;2.13;;
11685;SDS011;5899;51.282;6.094;2023-09-19T04:28:28;3.37;;;1.83;;
11685;SDS011;5899;51.282;6.094;2023-09-19T04:31:10;5.00;;;1.83;;
11685;SDS011;5899;51.282;6.094;2023-09-19T04:33:57;5.03;;;1.63;;
11685;SDS011;5899;51.282;6.094;2023-09-19T04:36:35;5.03;;;1.70;;
11685;SDS011;5899;51.282;6.094;2023-09-19T04:39:26;2.67;;;1.65;;
11685;SDS011;5899;51.282;6.094;2023-09-19T04:45:11;4.40;;;1.40;;
11685;SDS011;5899;51.282;6.094;2023-09-19T04:47:51;3.45;;;1.58;;
11685;SDS011;5899;51.282;6.094;2023-09-19T04:50:18;3.90;;;1.90;;
11685;SDS011;5899;51.282;6.094;2023-09-19T04:55:44;4.57;;;2.55;;
11685;SDS011;5899;51.282;6.094;2023-09-19T04:58:27;4.32;;;1.85;;
11685;SDS011;5899;51.282;6.094;2023-09-19T05:03:54;8.52;;;2.38;;
11685;SDS011;5899;51.282;6.094;2023-09-19T05:06:27;3.63;;;1.70;;
11685;SDS011;5899;51.282;6.094;2023-09-19T05:09:40;3.60;;;1.75;;
11685;SDS011;5899;51.282;6.094;2023-09-19T05:11:55;3.80;;;1.58;;
11685;SDS011;5899;51.282;6.094;2023-09-19T05:14:43;4.45;;;1.77;;
11685;SDS011;5899;51.282;6.094;2023-09-19T05:17:35;3.83;;;1.50;;
11685;SDS011;5899;51.282;6.094;2023-09-19T05:20:18;5.68;;;2.10;;
11685;SDS011;5899;51.282;6.094;2023-09-19T05:23:14;6.10;;;1.63;;
11685;SDS011;5899;51.282;6.094;2023-09-19T05:26:50;3.10;;;1.73;;
11685;SDS011;5899;51.282;6.094;2023-09-19T05:28:53;4.38;;;2.13;;
11685;SDS011;5899;51.282;6.094;2023-09-19T05:31:51;8.20;;;2.22;;
11685;SDS011;5899;51.282;6.094;2023-09-19T05:34:50;4.45;;;1.60;;
11685;SDS011;5899;51.282;6.094;2023-09-19T05:37:35;6.97;;;1.60;;
11685;SDS011;5899;51.282;6.094;2023-09-19T05:43:13;2.47;;;1.40;;
11685;SDS011;5899;51.282;6.094;2023-09-19T05:45:46;4.18;;;2.17;;
11685;SDS011;5899;51.282;6.094;2023-09-19T05:49:34;5.88;;;1.60;;
11685;SDS011;5899;51.282;6.094;2023-09-19T05:51:41;5.88;;;1.58;;
11685;SDS011;5899;51.282;6.094;2023-09-19T05:54:15;4.85;;;2.00;;
11685;SDS011;5899;51.282;6.094;2023-09-19T05:57:29;4.60;;;1.50;;
11685;SDS011;5899;51.282;6.094;2023-09-19T06:00:01;1.83;;;1.40;;
11685;SDS011;5899;51.282;6.094;2023-09-19T06:02:35;4.77;;;1.53;;
11685;SDS011;5899;51.282;6.094;2023-09-19T06:05:05;5.30;;;2.80;;
11685;SDS011;5899;51.282;6.094;2023-09-19T06:07:35;4.35;;;1.80;;
11685;SDS011;5899;51.282;6.094;2023-09-19T06:10:11;3.17;;;1.65;;
11685;SDS011;5899;51.282;6.094;2023-09-19T06:12:41;3.00;;;1.50;;
11685;SDS011;5899;51.282;6.094;2023-09-19T06:15:16;5.60;;;1.88;;
11685;SDS011;5899;51.282;6.094;2023-09-19T06:17:51;5.50;;;1.80;;
11685;SDS011;5899;51.282;6.094;2023-09-19T06:20:26;6.13;;;1.98;;
11685;SDS011;5899;51.282;6.094;2023-09-19T06:22:56;5.60;;;2.10;;
11685;SDS011;5899;51.282;6.094;2023-09-19T06:25:37;3.83;;;1.80;;
11685;SDS011;5899;51.282;6.094;2023-09-19T06:28:17;5.40;;;1.83;;
11685;SDS011;5899;51.282;6.094;2023-09-19T06:30:49;3.78;;;1.45;;
11685;SDS011;5899;51.282;6.094;2023-09-19T06:33:22;4.72;;;1.30;;
11685;SDS011;5899;51.282;6.094;2023-09-19T06:35:58;5.17;;;1.57;;
11685;SDS011;5899;51.282;6.094;2023-09-19T06:38:29;3.20;;;1.60;;
11685;SDS011;5899;51.282;6.094;2023-09-19T06:40:59;4.68;;;1.60;;
11685;SDS011;5899;51.282;6.094;2023-09-19T06:43:26;5.05;;;1.92;;
11685;SDS011;5899;51.282;6.094;2023-09-19T06:45:54;4.13;;;1.83;;
11685;SDS011;5899;51.282;6.094;2023-09-19T06:48:29;3.03;;;2.08;;
11685;SDS011;5899;51.282;6.094;2023-09-19T06:51:00;4.13;;;1.60;;
11685;SDS011;5899;51.282;6.094;2023-09-19T06:53:30;7.43;;;1.77;;
11685;SDS011;5899;51.282;6.094;2023-09-19T06:56:03;3.75;;;1.65;;
11685;SDS011;5899;51.282;6.094;2023-09-19T06:59:01;5.70;;;2.03;;
11685;SDS011;5899;51.282;6.094;2023-09-19T07:01:27;4.70;;;1.60;;
11685;SDS011;5899;51.282;6.094;2023-09-19T07:04:06;3.30;;;1.90;;
11685;SDS011;5899;51.282;6.094;2023-09-19T07:06:37;3.85;;;1.60;;
11685;SDS011;5899;51.282;6.094;2023-09-19T07:09:11;4.75;;;1.60;;
11685;SDS011;5899;51.282;6.094;2023-09-19T07:11:52;2.83;;;1.30;;
11685;SDS011;5899;51.282;6.094;2023-09-19T07:14:26;2.28;;;1.40;;
11685;SDS011;5899;51.282;6.094;2023-09-19T07:16:55;2.28;;;1.55;;
11685;SDS011;5899;51.282;6.094;2023-09-19T07:19:31;6.95;;;1.85;;
11685;SDS011;5899;51.282;6.094;2023-09-19T07:22:16;4.53;;;1.50;;
11685;SDS011;5899;51.282;6.094;2023-09-19T07:24:43;4.75;;;1.60;;
11685;SDS011;5899;51.282;6.094;2023-09-19T07:27:18;3.45;;;1.90;;
11685;SDS011;5899;51.282;6.094;2023-09-19T07:30:11;4.80;;;1.83;;
11685;SDS011;5899;51.282;6.094;2023-09-19T07:32:42;6.93;;;2.15;;
11685;SDS011;5899;51.282;6.094;2023-09-19T07:35:18;4.82;;;1.60;;
11685;SDS011;5899;51.282;6.094;2023-09-19T07:37:46;4.18;;;1.50;;
11685;SDS011;5899;51.282;6.094;2023-09-19T07:40:18;4.72;;;1.60;;
11685;SDS011;5899;51.282;6.094;2023-09-19T07:42:46;3.40;;;1.67;;
11685;SDS011;5899;51.282;6.094;2023-09-19T07:45:16;4.72;;;1.52;;
11685;SDS011;5899;51.282;6.094;2023-09-19T07:47:46;5.07;;;2.00;;
11685;SDS011;5899;51.282;6.094;2023-09-19T07:50:15;3.03;;;1.80;;
11685;SDS011;5899;51.282;6.094;2023-09-19T07:52:51;6.05;;;1.73;;
11685;SDS011;5899;51.282;6.094;2023-09-19T07:55:18;2.00;;;1.50;;
11685;SDS011;5899;51.282;6.094;2023-09-19T07:57:55;3.60;;;1.45;;
11685;SDS011;5899;51.282;6.094;2023-09-19T08:00:23;7.53;;;2.58;;
11685;SDS011;5899;51.282;6.094;2023-09-19T08:02:49;4.28;;;1.70;;
11685;SDS011;5899;51.282;6.094;2023-09-19T08:05:18;5.13;;;1.90;;
11685;SDS011;5899;51.282;6.094;2023-09-19T08:07:50;3.42;;;1.80;;
11685;SDS011;5899;51.282;6.094;2023-09-19T08:10:17;5.25;;;1.90;;
11685;SDS011;5899;51.282;6.094;2023-09-19T08:13:01;4.93;;;1.58;;
11685;SDS011;5899;51.282;6.094;2023-09-19T08:15:34;4.15;;;1.83;;
11685;SDS011;5899;51.282;6.094;2023-09-19T08:18:02;4.65;;;1.85;;
11685;SDS011;5899;51.282;6.094;2023-09-19T08:20:29;4.72;;;1.77;;
11685;SDS011;5899;51.282;6.094;2023-09-19T08:23:05;4.32;;;1.70;;
11685;SDS011;5899;51.282;6.094;2023-09-19T08:25:33;3.22;;;1.45;;
11685;SDS011;5899;51.282;6.094;2023-09-19T08:28:05;8.17;;;1.80;;
11685;SDS011;5899;51.282;6.094;2023-09-19T08:30:47;3.83;;;1.58;;
11685;SDS011;5899;51.282;6.094;2023-09-19T08:33:37;5.82;;;1.40;;
11685;SDS011;5899;51.282;6.094;2023-09-19T08:36:03;7.60;;;1.50;;
11685;SDS011;5899;51.282;6.094;2023-09-19T08:38:32;5.97;;;1.80;;
11685;SDS011;5899;51.282;6.094;2023-09-19T08:41:06;6.22;;;1.58;;
11685;SDS011;5899;51.282;6.094;2023-09-19T08:43:46;4.35;;;1.50;;
11685;SDS011;5899;51.282;6.094;2023-09-19T08:46:22;5.68;;;1.60;;
11685;SDS011;5899;51.282;6.094;2023-09-19T08:48:57;8.45;;;1.75;;
11685;SDS011;5899;51.282;6.094;2023-09-19T08:51:39;3.38;;;1.15;;
11685;SDS011;5899;51.282;6.094;2023-09-19T08:54:37;2.05;;;1.50;;
11685;SDS011;5899;51.282;6.094;2023-09-19T08:57:10;5.15;;;1.83;;
11685;SDS011;5899;51.282;6.094;2023-09-19T08:59:55;7.53;;;1.70;;
11685;SDS011;5899;51.282;6.094;2023-09-19T09:02:51;3.05;;;1.77;;
11685;SDS011;5899;51.282;6.094;2023-09-19T09:08:25;3.40;;;1.40;;
11685;SDS011;5899;51.282;6.094;2023-09-19T09:11:09;3.00;;;1.30;;
11685;SDS011;5899;51.282;6.094;2023-09-19T09:13:41;3.73;;;1.67;;
11685;SDS011;5899;51.282;6.094;2023-09-19T09:16:17;4.63;;;1.60;;
11685;SDS011;5899;51.282;6.094;2023-09-19T09:18:55;4.00;;;1.42;;
11685;SDS011;5899;51.282;6.094;2023-09-19T09:21:49;4.10;;;1.70;;
11685;SDS011;5899;51.282;6.094;2023-09-19T09:27:24;3.10;;;1.73;;
11685;SDS011;5899;51.282;6.094;2023-09-19T09:30:11;5.25;;;1.50;;
11685;SDS011;5899;51.282;6.094;2023-09-19T09:33:15;3.58;;;1.50;;
11685;SDS011;5899;51.282;6.094;2023-09-19T09:35:56;4.18;;;1.73;;
11685;SDS011;5899;51.282;6.094;2023-09-19T09:38:59;3.67;;;1.83;;
11685;SDS011;5899;51.282;6.094;2023-09-19T09:41:41;4.28;;;1.75;;
11685;SDS011;5899;51.282;6.094;2023-09-19T09:44:29;6.20;;;1.60;;
11685;SDS011;5899;51.282;6.094;2023-09-19T09:47:09;4.27;;;2.10;;
11685;SDS011;5899;51.282;6.094;2023-09-19T09:50:16;6.07;;;1.63;;
11685;SDS011;5899;51.282;6.094;2023-09-19T09:56:17;2.75;;;1.38;;
11685;SDS011;5899;51.282;6.094;2023-09-19T09:59:01;5.32;;;1.80;;
11685;SDS011;5899;51.282;6.094;2023-09-19T10:04:33;3.43;;;1.67;;
11685;SDS011;5899;51.282;6.094;2023-09-19T10:07:24;4.55;;;1.48;;
11685;SDS011;5899;51.282;6.094;2023-09-19T10:11:04;4.32;;;1.70;;
11685;SDS011;5899;51.282;6.094;2023-09-19T10:24:44;4.33;;;1.50;;
11685;SDS011;5899;51.282;6.094;2023-09-19T10:27:19;2.80;;;1.48;;
11685;SDS011;5899;51.282;6.094;2023-09-19T10:29:56;3.45;;;1.48;;
11685;SDS011;5899;51.282;6.094;2023-09-19T10:32:30;3.25;;;1.58;;
11685;SDS011;5899;51.282;6.094;2023-09-19T10:35:12;3.30;;;1.30;;
11685;SDS011;5899;51.282;6.094;2023-09-19T10:37:44;2.00;;;1.60;;
11685;SDS011;5899;51.282;6.094;2023-09-19T10:40:33;4.25;;;1.50;;
11685;SDS011;5899;51.282;6.094;2023-09-19T10:43:15;3.60;;;1.50;;
11685;SDS011;5899;51.282;6.094;2023-09-19T10:46:00;5.35;;;1.98;;
11685;SDS011;5899;51.282;6.094;2023-09-19T10:51:45;3.65;;;1.70;;
11685;SDS011;5899;51.282;6.094;2023-09-19T10:54:31;3.95;;;1.42;;
11685;SDS011;5899;51.282;6.094;2023-09-19T11:00:03;4.03;;;1.60;;
11685;SDS011;5899;51.282;6.094;2023-09-19T11:02:44;3.53;;;1.58;;
11685;SDS011;5899;51.282;6.094;2023-09-19T11:05:28;2.60;;;1.55;;
11685;SDS011;5899;51.282;6.094;2023-09-19T11:07:59;2.95;;;1.40;;
11685;SDS011;5899;51.282;6.094;2023-09-19T11:10:58;3.42;;;1.80;;
11685;SDS011;5899;51.282;6.094;2023-09-19T11:13:31;3.05;;;1.58;;
11685;SDS011;5899;51.282;6.094;2023-09-19T11:16:22;4.25;;;1.77;;
11685;SDS011;5899;51.282;6.094;2023-09-19T11:19:01;3.08;;;1.80;;
11685;SDS011;5899;51.282;6.094;2023-09-19T11:24:44;3.80;;;1.73;;
11685;SDS011;5899;51.282;6.094;2023-09-19T11:27:21;4.82;;;1.98;;
11685;SDS011;5899;51.282;6.094;2023-09-19T11:30:02;4.05;;;1.50;;
11685;SDS011;5899;51.282;6.094;2023-09-19T11:50:02;3.75;;;1.60;;
11685;SDS011;5899;51.282;6.094;2023-09-19T11:52:53;2.60;;;1.30;;
11685;SDS011;5899;51.282;6.094;2023-09-19T11:55:31;3.60;;;1.88;;
11685;SDS011;5899;51.282;6.094;2023-09-19T11:58:07;4.13;;;1.70;;
11685;SDS011;5899;51.282;6.094;2023-09-19T12:00:41;6.10;;;1.52;;
11685;SDS011;5899;51.282;6.094;2023-09-19T12:03:27;1.60;;;1.20;;
11685;SDS011;5899;51.282;6.094;2023-09-19T12:06:04;2.85;;;1.50;;
11685;SDS011;5899;51.282;6.094;2023-09-19T12:08:48;2.75;;;1.63;;
11685;SDS011;5899;51.282;6.094;2023-09-19T12:11:16;5.50;;;1.50;;
11685;SDS011;5899;51.282;6.094;2023-09-19T12:13:49;2.03;;;1.13;;
11685;SDS011;5899;51.282;6.094;2023-09-19T12:16:19;3.33;;;1.40;;
11685;SDS011;5899;51.282;6.094;2023-09-19T12:19:18;2.60;;;1.47;;
11685;SDS011;5899;51.282;6.094;2023-09-19T12:24:48;2.42;;;1.42;;
11685;SDS011;5899;51.282;6.094;2023-09-19T12:27:22;5.07;;;1.70;;
11685;SDS011;5899;51.282;6.094;2023-09-19T12:30:44;2.30;;;1.30;;
11685;SDS011;5899;51.282;6.094;2023-09-19T12:33:14;4.03;;;1.60;;
11685;SDS011;5899;51.282;6.094;2023-09-19T12:36:11;1.60;;;1.27;;
11685;SDS011;5899;51.282;6.094;2023-09-19T12:39:03;2.40;;;1.30;;
11685;SDS011;5899;51.282;6.094;2023-09-19T12:41:47;3.50;;;1.30;;
11685;SDS011;5899;51.282;6.094;2023-09-19T12:44:37;2.90;;;1.00;;
11685;SDS011;5899;51.282;6.094;2023-09-19T12:47:14;2.85;;;1.23;;
11685;SDS011;5899;51.282;6.094;2023-09-19T12:50:24;4.80;;;1.60;;
11685;SDS011;5899;51.282;6.094;2023-09-19T12:53:05;3.25;;;1.20;;
11685;SDS011;5899;51.282;6.094;2023-09-19T13:04:15;2.27;;;1.27;;
11685;SDS011;5899;51.282;6.094;2023-09-19T13:06:58;2.70;;;1.10;;
11685;SDS011;5899;51.282;6.094;2023-09-19T13:09:39;1.45;;;0.85;;
11685;SDS011;5899;51.282;6.094;2023-09-19T13:15:58;2.20;;;1.05;;
11685;SDS011;5899;51.282;6.094;2023-09-19T13:18:28;1.48;;;1.10;;
11685;SDS011;5899;51.282;6.094;2023-09-19T13:21:11;1.55;;;1.10;;
11685;SDS011;5899;51.282;6.094;2023-09-19T13:23:54;3.17;;;1.05;;
11685;SDS011;5899;51.282;6.094;2023-09-19T13:26:37;1.25;;;1.00;;
11685;SDS011;5899;51.282;6.094;2023-09-19T13:29:32;1.10;;;0.98;;
11685;SDS011;5899;51.282;6.094;2023-09-19T13:32:46;2.10;;;1.55;;
11685;SDS011;5899;51.282;6.094;2023-09-19T13:46:58;1.70;;;1.05;;
11685;SDS011;5899;51.282;6.094;2023-09-19T13:49:50;1.00;;;0.85;;
11685;SDS011;5899;51.282;6.094;2023-09-19T13:52:39;1.20;;;0.80;;
11685;SDS011;5899;51.282;6.094;2023-09-19T13:58:24;1.73;;;0.73;;
11685;SDS011;5899;51.282;6.094;2023-09-19T14:00:56;1.50;;;0.80;;
11685;SDS011;5899;51.282;6.094;2023-09-19T14:03:34;1.38;;;0.90;;
11685;SDS011;5899;51.282;6.094;2023-09-19T14:06:03;1.65;;;1.00;;
11685;SDS011;5899;51.282;6.094;2023-09-19T14:08:43;1.00;;;0.75;;
11685;SDS011;5899;51.282;6.094;2023-09-19T14:11:28;1.57;;;1.00;;
11685;SDS011;5899;51.282;6.094;2023-09-19T14:14:02;2.63;;;1.10;;
11685;SDS011;5899;51.282;6.094;2023-09-19T14:17:02;2.57;;;1.00;;
11685;SDS011;5899;51.282;6.094;2023-09-19T14:22:22;1.85;;;0.98;;
11685;SDS011;5899;51.282;6.094;2023-09-19T14:25:04;2.30;;;0.93;;
11685;SDS011;5899;51.282;6.094;2023-09-19T14:27:37;2.40;;;1.00;;
11685;SDS011;5899;51.282;6.094;2023-09-19T14:30:04;2.65;;;0.95;;
11685;SDS011;5899;51.282;6.094;2023-09-19T14:32:35;0.73;;;0.73;;
11685;SDS011;5899;51.282;6.094;2023-09-19T14:35:06;1.57;;;1.10;;
11685;SDS011;5899;51.282;6.094;2023-09-19T14:37:43;1.83;;;1.00;;
11685;SDS011;5899;51.282;6.094;2023-09-19T14:40:22;1.40;;;1.00;;
11685;SDS011;5899;51.282;6.094;2023-09-19T14:43:09;1.08;;;0.77;;
11685;SDS011;5899;51.282;6.094;2023-09-19T14:45:37;2.55;;;0.90;;
11685;SDS011;5899;51.282;6.094;2023-09-19T14:48:06;0.90;;;0.80;;
11685;SDS011;5899;51.282;6.094;2023-09-19T14:50:34;1.67;;;0.88;;
11685;SDS011;5899;51.282;6.094;2023-09-19T14:53:10;1.67;;;0.95;;
11685;SDS011;5899;51.282;6.094;2023-09-19T14:55:42;1.48;;;0.77;;
11685;SDS011;5899;51.282;6.094;2023-09-19T14:58:10;3.40;;;1.00;;
11685;SDS011;5899;51.282;6.094;2023-09-19T15:03:42;1.00;;;0.90;;
11685;SDS011;5899;51.282;6.094;2023-09-19T15:06:13;1.98;;;0.90;;
11685;SDS011;5899;51.282;6.094;2023-09-19T15:08:51;1.43;;;0.97;;
11685;SDS011;5899;51.282;6.094;2023-09-19T15:11:18;1.85;;;1.10;;
11685;SDS011;5899;51.282;6.094;2023-09-19T15:13:47;0.90;;;0.90;;
11685;SDS011;5899;51.282;6.094;2023-09-19T15:16:26;0.83;;;0.83;;
11685;SDS011;5899;51.282;6.094;2023-09-19T15:18:54;2.15;;;1.00;;
11685;SDS011;5899;51.282;6.094;2023-09-19T15:21:29;3.50;;;1.13;;
11685;SDS011;5899;51.282;6.094;2023-09-19T15:24:02;1.40;;;0.70;;
11685;SDS011;5899;51.282;6.094;2023-09-19T15:26:34;2.00;;;1.20;;
11685;SDS011;5899;51.282;6.094;2023-09-19T15:29:13;1.02;;;0.90;;
11685;SDS011;5899;51.282;6.094;2023-09-19T15:31:51;1.50;;;1.20;;
11685;SDS011;5899;51.282;6.094;2023-09-19T15:34:30;2.58;;;1.10;;
11685;SDS011;5899;51.282;6.094;2023-09-19T15:37:02;1.05;;;0.98;;
11685;SDS011;5899;51.282;6.094;2023-09-19T15:39:40;1.10;;;1.00;;
11685;SDS011;5899;51.282;6.094;2023-09-19T15:42:34;1.27;;;0.88;;
11685;SDS011;5899;51.282;6.094;2023-09-19T15:45:08;1.27;;;1.00;;
11685;SDS011;5899;51.282;6.094;2023-09-19T15:47:43;2.55;;;1.10;;
11685;SDS011;5899;51.282;6.094;2023-09-19T15:50:19;2.08;;;1.10;;
11685;SDS011;5899;51.282;6.094;2023-09-19T15:52:50;2.28;;;0.88;;
11685;SDS011;5899;51.282;6.094;2023-09-19T15:55:33;1.57;;;1.00;;
11685;SDS011;5899;51.282;6.094;2023-09-19T15:58:05;2.03;;;1.08;;
11685;SDS011;5899;51.282;6.094;2023-09-19T16:00:33;4.30;;;1.10;;
11685;SDS011;5899;51.282;6.094;2023-09-19T16:03:01;2.08;;;0.90;;
11685;SDS011;5899;51.282;6.094;2023-09-19T16:05:34;3.45;;;1.23;;
11685;SDS011;5899;51.282;6.094;2023-09-19T16:08:05;1.10;;;1.00;;
11685;SDS011;5899;51.282;6.094;2023-09-19T16:10:36;1.10;;;0.95;;
11685;SDS011;5899;51.282;6.094;2023-09-19T16:13:08;1.30;;;1.17;;
11685;SDS011;5899;51.282;6.094;2023-09-19T16:15:42;2.45;;;1.00;;
11685;SDS011;5899;51.282;6.094;2023-09-19T16:18:10;0.90;;;0.90;;
11685;SDS011;5899;51.282;6.094;2023-09-19T16:20:39;1.40;;;0.85;;
11685;SDS011;5899;51.282;6.094;2023-09-19T16:23:15;2.10;;;1.10;;
11685;SDS011;5899;51.282;6.094;2023-09-19T16:25:54;2.38;;;1.90;;
11685;SDS011;5899;51.282;6.094;2023-09-19T16:28:35;1.00;;;0.93;;
11685;SDS011;5899;51.282;6.094;2023-09-19T16:31:06;1.60;;;1.00;;
11685;SDS011;5899;51.282;6.094;2023-09-19T16:33:38;3.20;;;1.07;;
11685;SDS011;5899;51.282;6.094;2023-09-19T16:36:20;2.20;;;1.10;;
11685;SDS011;5899;51.282;6.094;2023-09-19T16:38:51;1.20;;;1.10;;
11685;SDS011;5899;51.282;6.094;2023-09-19T16:41:26;2.53;;;1.30;;
11685;SDS011;5899;51.282;6.094;2023-09-19T16:43:57;1.73;;;1.30;;
11685;SDS011;5899;51.282;6.094;2023-09-19T16:46:31;1.13;;;1.02;;
11685;SDS011;5899;51.282;6.094;2023-09-19T16:48:59;2.50;;;1.10;;
11685;SDS011;5899;51.282;6.094;2023-09-19T16:51:25;1.30;;;1.10;;
11685;SDS011;5899;51.282;6.094;2023-09-19T16:53:54;1.58;;;1.10;;
11685;SDS011;5899;51.282;6.094;2023-09-19T16:56:22;1.25;;;1.15;;
11685;SDS011;5899;51.282;6.094;2023-09-19T16:58:49;2.40;;;1.00;;
11685;SDS011;5899;51.282;6.094;2023-09-19T17:01:16;2.10;;;1.17;;
11685;SDS011;5899;51.282;6.094;2023-09-19T17:03:43;1.40;;;1.17;;
11685;SDS011;5899;51.282;6.094;2023-09-19T17:06:12;2.08;;;1.60;;
11685;SDS011;5899;51.282;6.094;2023-09-19T17:08:41;2.20;;;1.20;;
11685;SDS011;5899;51.282;6.094;2023-09-19T17:11:13;2.83;;;1.08;;
11685;SDS011;5899;51.282;6.094;2023-09-19T17:13:42;2.80;;;1.23;;
11685;SDS011;5899;51.282;6.094;2023-09-19T17:16:12;1.80;;;1.00;;
11685;SDS011;5899;51.282;6.094;2023-09-19T17:18:49;2.05;;;0.98;;
11685;SDS011;5899;51.282;6.094;2023-09-19T17:21:16;3.00;;;1.10;;
11685;SDS011;5899;51.282;6.094;2023-09-19T17:23:43;1.77;;;1.00;;
11685;SDS011;5899;51.282;6.094;2023-09-19T17:26:12;3.35;;;1.25;;
11685;SDS011;5899;51.282;6.094;2023-09-19T17:28:44;1.65;;;1.27;;
11685;SDS011;5899;51.282;6.094;2023-09-19T17:31:11;1.48;;;1.08;;
11685;SDS011;5899;51.282;6.094;2023-09-19T17:33:40;2.40;;;1.25;;
11685;SDS011;5899;51.282;6.094;2023-09-19T17:36:10;2.08;;;0.98;;
11685;SDS011;5899;51.282;6.094;2023-09-19T17:38:41;1.65;;;1.25;;
11685;SDS011;5899;51.282;6.094;2023-09-19T17:41:12;3.50;;;1.73;;
11685;SDS011;5899;51.282;6.094;2023-09-19T17:43:41;3.37;;;1.33;;
11685;SDS011;5899;51.282;6.094;2023-09-19T17:46:10;2.07;;;1.50;;
11685;SDS011;5899;51.282;6.094;2023-09-19T17:48:39;2.28;;;1.00;;
11685;SDS011;5899;51.282;6.094;2023-09-19T17:51:09;2.30;;;1.10;;
11685;SDS011;5899;51.282;6.094;2023-09-19T17:53:42;2.72;;;1.15;;
11685;SDS011;5899;51.282;6.094;2023-09-19T17:56:12;2.38;;;1.33;;
11685;SDS011;5899;51.282;6.094;2023-09-19T17:58:48;1.45;;;1.15;;
11685;SDS011;5899;51.282;6.094;2023-09-19T18:01:33;1.40;;;1.10;;
11685;SDS011;5899;51.282;6.094;2023-09-19T18:04:04;3.83;;;1.40;;
11685;SDS011;5899;51.282;6.094;2023-09-19T18:06:38;1.15;;;1.10;;
11685;SDS011;5899;51.282;6.094;2023-09-19T18:09:05;2.70;;;1.20;;
11685;SDS011;5899;51.282;6.094;2023-09-19T18:11:32;3.30;;;1.10;;
11685;SDS011;5899;51.282;6.094;2023-09-19T18:13:59;2.50;;;1.30;;
11685;SDS011;5899;51.282;6.094;2023-09-19T18:16:27;2.78;;;1.20;;
11685;SDS011;5899;51.282;6.094;2023-09-19T18:18:56;2.50;;;1.05;;
11685;SDS011;5899;51.282;6.094;2023-09-19T18:21:23;1.65;;;1.38;;
11685;SDS011;5899;51.282;6.094;2023-09-19T18:23:52;2.15;;;1.35;;
11685;SDS011;5899;51.282;6.094;2023-09-19T18:26:21;1.13;;;0.90;;
11685;SDS011;5899;51.282;6.094;2023-09-19T18:28:54;1.30;;;1.03;;
11685;SDS011;5899;51.282;6.094;2023-09-19T18:31:26;2.05;;;1.15;;